KSEAOAJL

Guest
Details From KSEA - Seattle Tacoma Intl
To OAJL - Jalalabad
Flight Number -
Tags Real Decoded
Created
Modified
Stats Distance 6,568 nm / 12,164 km
Max Altitude 50,000 ft / 15,240 m
Waypoints 3
Social Downloads 1
Likes 0
Share VATSIM

Download

Looking for another format? Having issues loading an existing format? Contact us
Advertisement - Login to hide

Notes

Decoded

Route

KSEA TO OAJL

ID Type Via Altitude Latitude Longitude Leg Dist Tot Dist Heading (true) Name
O KSEA APT - 0 ft / 0 m 47.46383˚ -122.31786˚ - 0 nm - -
TO NDB - 50,000 ft / 15,240 m 63.43978˚ 10.68014˚ 3787 nm 3787 nm 22° / 146° MALVIK NDB
O OAJL APT - 0 ft / 0 m 34.40644˚ 70.48960˚ 2780 nm 6568 nm 99° / 148° -

Altitude Profile

Advertisement - Login to hide

Weather


0- 5 10 15 20 25 30 35+ Temperature / ° C

Clouds and Precipitation
Forecast for 2018-05-23 18:00 UTC. Updated 6 hours ago

Ground ~20,000 ft ~40,000 ft Winds

KSEA

Details ICAO KSEA (SEA)
Name Seattle Tacoma Intl
Region United States
Timezone America/Los_Angeles (UTC-7.0)
Stats Elevation 433 ft / 132 m (AMSL)
Location 47.450188° -122.312320°
Runways 3
Magnetic Variation 15.623° E

METAR

KSEA 232253Z 23008KT 10SM FEW060 FEW100 26/11 A2979 RMK AO2 SLP091 CB DSNT E-SE T02560111 $

Decode

TAF

KSEA 232106Z 2321/2424 26007KT P6SM FEW050 FEW100 FM240000 24008KT P6SM SCT050 SCT120 FM240600 22010KT P6SM SCT020 TEMPO 2406/2409 BKN020 FM240900 18010KT P6SM OVC018 FM241700 23004KT P6SM BKN025 FM242200 VRB04KT P6SM BKN040

Decode

Departure Runways

ID Width Length Bearing (true) Bearing (mag) Surface Threshold Offset Overrun Length
16C 151 ft / 46 m 9,429 ft / 2,874 m 180.34° 164.72° Concrete 0 ft / 0 m 223 ft / 68 m
16L 151 ft / 46 m 11,904 ft / 3,628 m 180.34° 164.72° Concrete 0 ft / 0 m 151 ft / 46 m
16R 151 ft / 46 m 8,503 ft / 2,592 m 180.34° 164.72° Concrete 0 ft / 0 m 164 ft / 50 m
34C 151 ft / 46 m 9,429 ft / 2,874 m 0.34° 344.72° Concrete 0 ft / 0 m 394 ft / 120 m
34L 151 ft / 46 m 8,503 ft / 2,592 m 0.34° 344.72° Concrete 0 ft / 0 m 394 ft / 120 m
34R 151 ft / 46 m 11,904 ft / 3,628 m 0.34° 344.72° Concrete 0 ft / 0 m 400 ft / 122 m

OAJL

Details ICAO OAJL (JAA)
Name JALALABAD
Region Afghanistan
Timezone Asia/Kabul (UTC+4.5)
Stats Elevation 1,814 ft / 553 m (AMSL)
Location 34.399840° 70.498625°
Runways 1
Magnetic Variation 3.048° E

METAR

OAJL 232155Z COR 28005KT 9999 CLR 27/M04 A2977 RMK AO2A SLP036 T02711037 COR 2216

Decode

TAF

TAF OAJL 231600Z 2316/2422 29009KT 9999 FEW160 QNH2978INS BECMG 2405/2406 30012KT 9999 SKC QNH2972INS BECMG 2412/2413 VRB06KT 9999 SCT160 QNH2976INS TX37/2411Z TN23/2400Z

Decode

Destination Runways

ID Width Length Bearing (true) Bearing (mag) Surface Threshold Offset Overrun Length
13 148 ft / 45 m 7,263 ft / 2,214 m 131.57° 128.52° Asphalt 0 ft / 0 m 0 ft / 0 m
31 148 ft / 45 m 7,263 ft / 2,214 m 311.58° 308.53° Asphalt 0 ft / 0 m 0 ft / 0 m